createdAt,value
2022-10-19T00:02:17.515Z,11.47
2022-10-19T00:04:44.501Z,11.46
2022-10-19T00:07:10.876Z,11.43
2022-10-19T00:09:37.245Z,11.43
2022-10-19T00:12:03.662Z,11.40
2022-10-19T00:14:30.011Z,11.37
2022-10-19T00:16:57.986Z,11.33
2022-10-19T00:19:26.996Z,11.31
2022-10-19T00:21:53.432Z,11.28
2022-10-19T00:24:20.789Z,11.25
2022-10-19T00:26:47.174Z,11.23
2022-10-19T00:29:14.552Z,11.23
2022-10-19T00:31:41.775Z,11.18
2022-10-19T00:34:08.237Z,11.16
2022-10-19T00:36:38.597Z,11.13
2022-10-19T00:39:07.037Z,11.11
2022-10-19T00:41:36.123Z,11.06
2022-10-19T00:44:27.097Z,11.05
2022-10-19T00:46:53.701Z,11.01
2022-10-19T00:49:26.712Z,10.99
2022-10-19T00:51:56.101Z,10.99
2022-10-19T00:54:23.656Z,10.98
2022-10-19T00:56:53.110Z,10.96
2022-10-19T00:59:22.047Z,10.94
2022-10-19T01:01:49.381Z,10.91
2022-10-19T01:04:15.858Z,10.85
2022-10-19T01:06:42.386Z,10.83
2022-10-19T01:09:08.896Z,10.79
2022-10-19T01:12:06.293Z,10.78
2022-10-19T01:14:55.201Z,10.75
2022-10-19T01:17:40.502Z,10.74
2022-10-19T01:20:31.425Z,10.68
2022-10-19T01:24:04.606Z,10.63
2022-10-19T01:26:53.976Z,10.58
2022-10-19T01:29:44.793Z,10.59
2022-10-19T01:32:21.719Z,10.58
2022-10-19T01:34:57.960Z,10.56
2022-10-19T01:37:34.219Z,10.53
2022-10-19T01:40:12.449Z,10.55
2022-10-19T01:45:40.768Z,10.52
2022-10-19T01:48:22.130Z,10.49
2022-10-19T01:51:01.342Z,10.46
2022-10-19T01:53:32.961Z,10.46
2022-10-19T01:56:03.072Z,10.50
2022-10-19T01:58:35.056Z,10.47
2022-10-19T02:01:06.912Z,10.46
2022-10-19T02:03:35.039Z,10.44
2022-10-19T02:06:05.990Z,10.45
2022-10-19T02:08:40.403Z,10.45
2022-10-19T02:11:06.920Z,10.45
2022-10-19T02:13:33.978Z,10.45
2022-10-19T02:16:06.521Z,10.49
2022-10-19T02:18:42.306Z,10.50
2022-10-19T02:21:09.401Z,10.49
2022-10-19T02:23:36.374Z,10.48
2022-10-19T02:26:03.539Z,10.45
2022-10-19T02:28:30.395Z,10.40
2022-10-19T02:30:58.181Z,10.36
2022-10-19T02:33:24.878Z,10.34
2022-10-19T02:35:51.244Z,10.33
2022-10-19T02:38:21.550Z,10.32
2022-10-19T02:40:56.921Z,10.30
2022-10-19T02:43:26.706Z,10.28
2022-10-19T02:46:22.254Z,10.25
2022-10-19T02:48:51.617Z,10.22
2022-10-19T02:51:30.276Z,10.19
2022-10-19T02:53:57.392Z,10.16
2022-10-19T02:56:25.549Z,10.15
2022-10-19T02:58:51.972Z,10.12
2022-10-19T03:01:18.391Z,10.09
2022-10-19T03:03:44.817Z,10.07
2022-10-19T03:06:11.162Z,10.07
2022-10-19T03:08:37.537Z,10.05
2022-10-19T03:11:04.408Z,10.02
2022-10-19T03:13:30.787Z,9.99
2022-10-19T03:15:57.136Z,9.99
2022-10-19T03:18:23.533Z,9.97
2022-10-19T03:20:49.890Z,9.96
2022-10-19T03:23:16.255Z,9.93
2022-10-19T03:25:42.713Z,9.87
2022-10-19T03:28:09.050Z,9.88
2022-10-19T03:30:35.412Z,9.86
2022-10-19T03:33:01.751Z,9.84
2022-10-19T03:35:28.089Z,9.83
2022-10-19T03:37:54.446Z,9.84
2022-10-19T03:40:20.830Z,9.84
2022-10-19T03:42:47.189Z,9.83
2022-10-19T03:45:13.558Z,9.82
2022-10-19T03:47:39.925Z,9.80
2022-10-19T03:50:06.629Z,9.80
2022-10-19T03:52:32.969Z,9.80
2022-10-19T03:54:59.398Z,9.78
2022-10-19T03:57:25.758Z,9.76
2022-10-19T03:59:52.109Z,9.73
2022-10-19T04:02:18.479Z,9.70
2022-10-19T04:04:44.842Z,9.68
2022-10-19T04:07:11.216Z,9.66
2022-10-19T04:09:37.546Z,9.63
2022-10-19T04:12:04.107Z,9.63
2022-10-19T04:14:33.291Z,9.62
2022-10-19T04:17:05.497Z,9.63
2022-10-19T04:19:31.870Z,9.60
2022-10-19T04:21:58.607Z,9.57
2022-10-19T04:24:25.144Z,9.54
2022-10-19T04:26:53.953Z,9.52
2022-10-19T04:29:24.966Z,9.51
2022-10-19T04:31:54.317Z,9.51
2022-10-19T04:34:20.669Z,9.48
2022-10-19T04:36:47.011Z,9.50
2022-10-19T04:39:13.807Z,9.48
2022-10-19T04:41:40.147Z,9.46
2022-10-19T04:44:06.704Z,9.43
2022-10-19T04:46:33.197Z,9.40
2022-10-19T04:49:00.149Z,9.39
2022-10-19T04:51:27.231Z,9.40
2022-10-19T04:53:56.930Z,9.38
2022-10-19T04:56:26.910Z,9.37
2022-10-19T04:58:59.952Z,9.36
2022-10-19T05:01:28.196Z,9.34
2022-10-19T05:06:23.605Z,9.32
2022-10-19T05:08:50.461Z,9.32
2022-10-19T05:11:17.592Z,9.30
2022-10-19T05:13:44.142Z,9.30
2022-10-19T05:16:17.742Z,9.28
2022-10-19T05:18:56.028Z,9.28
2022-10-19T05:21:22.800Z,9.30
2022-10-19T05:23:52.621Z,9.29
2022-10-19T05:26:21.258Z,9.29
2022-10-19T05:28:56.216Z,9.29
2022-10-19T05:31:24.448Z,9.29
2022-10-19T05:33:51.213Z,9.29
2022-10-19T05:36:26.881Z,9.28
2022-10-19T05:38:55.750Z,9.26
2022-10-19T05:41:23.351Z,9.25
2022-10-19T05:43:55.491Z,9.25
2022-10-19T05:46:22.638Z,9.23
2022-10-19T05:48:49.214Z,9.21
2022-10-19T05:51:18.148Z,9.19
2022-10-19T05:53:45.198Z,9.20
2022-10-19T05:56:17.937Z,9.22
2022-10-19T05:58:44.759Z,9.19
2022-10-19T06:01:11.715Z,9.20
2022-10-19T06:03:38.476Z,9.19
2022-10-19T06:06:06.604Z,9.17
2022-10-19T06:08:33.350Z,9.16
2022-10-19T06:11:11.739Z,9.15
2022-10-19T06:13:39.570Z,9.14
2022-10-19T06:16:08.097Z,9.16
2022-10-19T06:18:35.344Z,9.15
2022-10-19T06:21:07.269Z,9.14
2022-10-19T06:23:34.810Z,9.13
2022-10-19T06:26:06.450Z,9.14
2022-10-19T06:28:33.109Z,9.15
2022-10-19T06:30:59.811Z,9.20
2022-10-19T06:33:32.753Z,9.24
2022-10-19T06:36:13.889Z,9.29
2022-10-19T06:38:40.837Z,9.31
2022-10-19T06:41:07.778Z,9.30
2022-10-19T06:43:35.051Z,9.30
2022-10-19T06:46:10.374Z,9.33
2022-10-19T06:48:37.029Z,9.35
2022-10-19T06:51:07.379Z,9.40
2022-10-19T06:53:35.049Z,9.45
2022-10-19T06:56:03.403Z,9.53
2022-10-19T06:58:31.025Z,9.61
2022-10-19T07:01:01.273Z,9.68
2022-10-19T07:03:30.671Z,9.74
2022-10-19T07:05:59.744Z,9.82
2022-10-19T07:08:28.506Z,9.93
2022-10-19T07:10:57.687Z,10.02
2022-10-19T07:13:24.673Z,10.02
2022-10-19T07:16:06.842Z,10.04
2022-10-19T07:18:36.930Z,10.09
2022-10-19T07:21:06.812Z,10.13
2022-10-19T07:23:35.624Z,10.18
2022-10-19T07:26:14.550Z,10.22
2022-10-19T07:28:42.839Z,10.22
2022-10-19T07:31:12.063Z,10.26
2022-10-19T07:33:38.615Z,10.27
2022-10-19T07:36:08.574Z,10.34
2022-10-19T07:38:35.713Z,10.38
2022-10-19T07:41:06.729Z,10.47
2022-10-19T07:43:33.554Z,10.47
2022-10-19T07:46:15.208Z,10.49
2022-10-19T07:48:42.341Z,10.50
2022-10-19T07:51:10.407Z,10.51
2022-10-19T07:53:37.440Z,10.58
2022-10-19T07:56:09.681Z,10.64
2022-10-19T07:58:37.367Z,10.68
2022-10-19T08:01:09.865Z,10.75
2022-10-19T08:04:31.752Z,10.81
2022-10-19T08:06:24.496Z,10.84
2022-10-19T08:08:51.349Z,10.89
2022-10-19T08:11:20.540Z,10.91
2022-10-19T08:13:47.144Z,10.89
2022-10-19T08:16:36.572Z,10.97
2022-10-19T08:19:10.961Z,11.03
2022-10-19T08:21:40.129Z,11.10
2022-10-19T08:24:07.473Z,11.13
2022-10-19T08:26:36.473Z,11.15
2022-10-19T08:29:05.722Z,11.16
2022-10-19T08:31:32.661Z,11.14
2022-10-19T08:33:59.504Z,11.18
2022-10-19T08:36:26.257Z,11.24
2022-10-19T08:38:52.653Z,11.30
2022-10-19T08:41:25.321Z,11.35
2022-10-19T08:44:09.344Z,11.38
2022-10-19T08:46:48.557Z,11.42
2022-10-19T08:49:20.184Z,11.39
2022-10-19T08:51:51.173Z,11.44
2022-10-19T08:54:18.200Z,11.48
2022-10-19T08:56:56.806Z,11.47
2022-10-19T08:59:51.094Z,11.41
2022-10-19T09:02:29.878Z,11.36
2022-10-19T09:05:05.253Z,11.38
2022-10-19T09:07:45.493Z,11.23
2022-10-19T09:10:15.599Z,11.30
2022-10-19T09:12:58.440Z,11.41
2022-10-19T09:15:46.339Z,11.51
2022-10-19T09:18:25.385Z,11.51
2022-10-19T09:21:00.092Z,11.55
2022-10-19T09:23:35.106Z,11.65
2022-10-19T09:26:02.130Z,11.72
2022-10-19T09:28:44.522Z,11.76
2022-10-19T09:31:19.418Z,11.79
2022-10-19T09:33:53.066Z,11.76
2022-10-19T09:36:22.737Z,11.75
2022-10-19T09:38:54.161Z,11.79
2022-10-19T09:41:23.354Z,11.80
2022-10-19T09:43:53.680Z,11.79
2022-10-19T09:46:55.267Z,11.81
2022-10-19T09:49:45.471Z,11.83
2022-10-19T09:52:29.806Z,11.88
2022-10-19T09:55:02.687Z,11.88
2022-10-19T09:57:30.498Z,11.99
2022-10-19T09:59:57.086Z,12.01
2022-10-19T10:02:33.169Z,12.00
2022-10-19T10:05:14.077Z,12.08
2022-10-19T10:07:41.082Z,12.10
2022-10-19T10:10:19.232Z,12.10
2022-10-19T10:12:46.650Z,11.98
2022-10-19T10:15:21.596Z,11.98
2022-10-19T10:17:49.432Z,12.02
2022-10-19T10:20:27.812Z,11.96
2022-10-19T10:22:58.282Z,12.05
2022-10-19T10:25:27.996Z,12.08
2022-10-19T10:28:00.870Z,12.08
2022-10-19T10:30:32.391Z,12.11
2022-10-19T10:33:08.121Z,12.03
2022-10-19T10:35:49.721Z,12.02
2022-10-19T10:38:26.302Z,12.07
2022-10-19T10:40:56.676Z,12.04
2022-10-19T10:43:30.587Z,12.20
2022-10-19T10:46:03.478Z,12.25
2022-10-19T10:49:01.862Z,12.17
2022-10-19T10:51:37.593Z,12.22
2022-10-19T10:54:26.756Z,12.18
2022-10-19T10:57:03.009Z,12.07
2022-10-19T10:59:45.752Z,12.06
2022-10-19T11:05:19.969Z,12.25
2022-10-19T11:07:50.341Z,12.26
2022-10-19T11:10:20.888Z,12.25
2022-10-19T11:12:58.961Z,12.34
2022-10-19T11:15:48.376Z,12.31
2022-10-19T11:18:22.293Z,12.34
2022-10-19T11:21:15.722Z,12.28
2022-10-19T11:24:05.906Z,12.25
2022-10-19T11:26:47.342Z,12.18
2022-10-19T11:29:36.524Z,12.28
2022-10-19T11:32:09.585Z,12.44
2022-10-19T11:35:16.429Z,12.38
2022-10-19T11:37:50.313Z,12.56
2022-10-19T11:41:17.255Z,12.60
2022-10-19T11:44:05.597Z,12.54
2022-10-19T11:46:49.041Z,12.57
2022-10-19T11:49:34.052Z,12.63
2022-10-19T11:52:24.245Z,12.72
2022-10-19T11:54:59.394Z,12.78
2022-10-19T11:57:32.057Z,12.81
2022-10-19T12:00:21.128Z,12.87
2022-10-19T12:03:08.494Z,12.86
2022-10-19T12:05:54.118Z,12.84
2022-10-19T12:08:42.762Z,12.94
2022-10-19T12:11:33.295Z,12.96
2022-10-19T12:14:04.829Z,12.99
2022-10-19T12:16:39.507Z,12.98
2022-10-19T12:19:11.489Z,13.03
2022-10-19T12:21:41.100Z,13.12
2022-10-19T12:24:15.885Z,13.20
2022-10-19T12:26:44.642Z,13.26
2022-10-19T12:29:19.533Z,13.25
2022-10-19T12:31:47.689Z,13.33
2022-10-19T12:34:19.695Z,13.32
2022-10-19T12:37:07.797Z,13.39
2022-10-19T12:39:56.144Z,13.40
2022-10-19T12:42:31.380Z,13.33
2022-10-19T12:45:25.406Z,13.42
2022-10-19T12:48:12.930Z,13.43
2022-10-19T12:50:48.401Z,13.42
2022-10-19T12:56:16.072Z,13.40
2022-10-19T12:58:46.716Z,13.49
2022-10-19T13:01:22.346Z,13.66
2022-10-19T13:04:08.293Z,13.65
2022-10-19T13:06:44.850Z,13.69
2022-10-19T13:09:29.909Z,13.65
2022-10-19T13:12:22.194Z,13.61
2022-10-19T13:15:04.981Z,13.56
2022-10-19T13:17:34.454Z,13.65
2022-10-19T13:20:13.163Z,13.73
2022-10-19T13:22:48.784Z,13.72
2022-10-19T13:25:27.117Z,13.67
2022-10-19T13:28:07.146Z,13.76
2022-10-19T13:30:39.551Z,13.74
2022-10-19T13:33:31.298Z,13.71
2022-10-19T13:36:00.718Z,13.72
2022-10-19T13:38:32.237Z,13.77
2022-10-19T13:41:21.711Z,13.81
2022-10-19T13:44:18.098Z,13.73
2022-10-19T13:47:02.806Z,13.60
2022-10-19T13:49:50.489Z,13.59
2022-10-19T13:52:26.071Z,13.64
2022-10-19T13:55:30.217Z,13.67
2022-10-19T13:58:18.561Z,13.70
2022-10-19T14:01:11.673Z,13.70
2022-10-19T14:03:53.094Z,13.67
2022-10-19T14:06:33.340Z,13.62
2022-10-19T14:09:27.154Z,13.55
2022-10-19T14:12:06.250Z,13.56
2022-10-19T14:14:43.700Z,13.55
2022-10-19T14:17:16.133Z,13.61
2022-10-19T14:19:43.900Z,13.66
2022-10-19T14:22:24.190Z,13.68
2022-10-19T14:24:50.630Z,13.72
2022-10-19T14:27:22.938Z,13.64
2022-10-19T14:29:52.741Z,13.67
2022-10-19T14:32:26.087Z,13.67
2022-10-19T14:34:53.796Z,13.69
2022-10-19T14:37:25.721Z,13.72
2022-10-19T14:40:01.386Z,13.73
2022-10-19T14:42:43.421Z,13.74
2022-10-19T14:45:22.610Z,13.70
2022-10-19T14:47:59.362Z,13.66
2022-10-19T14:50:42.668Z,13.58
2022-10-19T14:53:31.949Z,13.60
2022-10-19T14:56:04.690Z,13.65
2022-10-19T14:58:39.391Z,13.67
2022-10-19T15:01:06.303Z,13.64
2022-10-19T15:03:33.553Z,13.59
2022-10-19T15:06:04.196Z,13.53
2022-10-19T15:08:42.572Z,13.51
2022-10-19T15:11:23.356Z,13.47
2022-10-19T15:13:57.868Z,13.39
2022-10-19T15:16:33.654Z,13.42
2022-10-19T15:19:14.341Z,13.40
2022-10-19T15:21:40.768Z,13.40
2022-10-19T15:24:40.906Z,13.37
2022-10-19T15:27:21.672Z,13.42
2022-10-19T15:30:04.067Z,13.43
2022-10-19T15:32:35.453Z,13.42
2022-10-19T15:35:30.083Z,13.35
2022-10-19T15:38:12.221Z,13.35
2022-10-19T15:40:41.337Z,13.29
2022-10-19T15:43:36.874Z,13.28
2022-10-19T15:46:07.341Z,13.28
2022-10-19T15:48:52.509Z,13.23
2022-10-19T15:51:33.163Z,13.24
2022-10-19T15:54:02.245Z,13.22
2022-10-19T15:56:31.069Z,13.23
2022-10-19T15:59:00.008Z,13.20
2022-10-19T16:01:28.730Z,13.19
2022-10-19T16:03:55.550Z,13.14
2022-10-19T16:06:25.794Z,13.10
2022-10-19T16:08:53.896Z,13.09
2022-10-19T16:11:23.009Z,13.07
2022-10-19T16:13:49.398Z,13.08
2022-10-19T16:16:22.538Z,13.07
2022-10-19T16:18:49.004Z,13.00
2022-10-19T16:21:15.932Z,12.99
2022-10-19T16:23:42.424Z,13.00
2022-10-19T16:26:09.093Z,13.06
2022-10-19T16:28:35.918Z,13.17
2022-10-19T16:31:02.322Z,13.25
2022-10-19T16:33:28.673Z,13.15
2022-10-19T16:35:55.021Z,13.11
2022-10-19T16:38:21.424Z,13.18
2022-10-19T16:40:47.921Z,13.14
2022-10-19T16:43:14.318Z,13.10
2022-10-19T16:45:44.608Z,13.00
2022-10-19T16:48:13.732Z,12.89
2022-10-19T16:50:40.147Z,12.82
2022-10-19T16:53:12.593Z,12.79
2022-10-19T16:55:40.548Z,12.77
2022-10-19T16:58:06.978Z,12.78
2022-10-19T17:00:33.556Z,12.77
2022-10-19T17:02:59.933Z,12.73
2022-10-19T17:05:26.282Z,12.71
2022-10-19T17:07:52.617Z,12.66
2022-10-19T17:10:19.034Z,12.65
2022-10-19T17:12:45.440Z,12.68
2022-10-19T17:15:42.493Z,12.67
2022-10-19T17:17:59.508Z,12.55
2022-10-19T17:20:25.878Z,12.54
2022-10-19T17:22:52.223Z,12.56
2022-10-19T17:25:18.585Z,12.59
2022-10-19T17:27:44.938Z,12.58
2022-10-19T17:30:11.355Z,12.47
2022-10-19T17:32:37.980Z,12.52
2022-10-19T17:35:04.740Z,12.57
2022-10-19T17:37:31.102Z,12.53
2022-10-19T17:39:57.481Z,12.53
2022-10-19T17:42:23.892Z,12.51
2022-10-19T17:44:50.276Z,12.44
2022-10-19T17:47:16.666Z,12.40
2022-10-19T17:49:43.010Z,12.36
2022-10-19T17:52:09.366Z,12.34
2022-10-19T17:54:43.715Z,12.32
2022-10-19T17:57:20.794Z,12.35
2022-10-19T17:59:52.953Z,12.33
2022-10-19T18:02:19.656Z,12.32
2022-10-19T18:04:46.331Z,12.32
2022-10-19T18:07:12.686Z,12.26
2022-10-19T18:09:39.157Z,12.21
2022-10-19T18:12:07.585Z,12.22
2022-10-19T18:14:34.267Z,12.17
2022-10-19T18:17:00.830Z,12.15
2022-10-19T18:19:27.247Z,12.19
2022-10-19T18:21:53.660Z,12.22
2022-10-19T18:24:21.273Z,12.23
2022-10-19T18:26:50.497Z,12.17
2022-10-19T18:29:20.313Z,12.20
2022-10-19T18:31:52.109Z,12.22
2022-10-19T18:34:21.575Z,12.18
2022-10-19T18:36:48.854Z,12.09
2022-10-19T18:39:15.718Z,12.03
2022-10-19T18:41:42.518Z,12.00
2022-10-19T18:44:12.889Z,12.00
2022-10-19T18:46:39.300Z,11.91
2022-10-19T18:49:08.158Z,11.93
2022-10-19T18:51:35.477Z,11.90
2022-10-19T18:54:02.029Z,11.85
2022-10-19T18:56:29.356Z,11.85
2022-10-19T18:58:56.856Z,11.91
2022-10-19T19:01:26.454Z,11.88
2022-10-19T19:03:55.159Z,11.89
2022-10-19T19:06:25.009Z,11.88
2022-10-19T19:08:54.646Z,11.84
2022-10-19T19:11:23.660Z,11.76
2022-10-19T19:13:58.650Z,11.69
2022-10-19T19:16:26.536Z,11.64
2022-10-19T19:18:54.322Z,11.65
2022-10-19T19:21:23.097Z,11.62
2022-10-19T19:23:51.093Z,11.67
2022-10-19T19:26:19.329Z,11.65
2022-10-19T19:28:49.039Z,11.70
2022-10-19T19:31:18.489Z,11.63
2022-10-19T19:33:45.800Z,11.61
2022-10-19T19:36:14.757Z,11.56
2022-10-19T19:38:41.147Z,11.48
2022-10-19T19:41:10.490Z,11.42
2022-10-19T19:43:38.486Z,11.38
2022-10-19T19:46:15.296Z,11.38
2022-10-19T19:48:44.522Z,11.26
2022-10-19T19:51:13.409Z,11.28
2022-10-19T19:53:40.081Z,11.24
2022-10-19T19:56:08.569Z,11.27
2022-10-19T19:58:35.069Z,11.25
2022-10-19T20:01:12.541Z,11.24
2022-10-19T20:03:40.686Z,11.26
2022-10-19T20:06:07.350Z,11.24
2022-10-19T20:08:36.012Z,11.21
2022-10-19T20:11:06.711Z,11.21
2022-10-19T20:13:33.510Z,11.26
2022-10-19T20:16:06.148Z,11.23
2022-10-19T20:18:32.536Z,11.17
2022-10-19T20:21:03.247Z,11.14
2022-10-19T20:23:30.794Z,11.16
2022-10-19T20:25:57.358Z,11.12
2022-10-19T20:28:25.044Z,11.07
2022-10-19T20:31:07.617Z,11.09
2022-10-19T20:33:36.140Z,11.00
2022-10-19T20:36:17.634Z,10.91
2022-10-19T20:38:53.030Z,10.87
2022-10-19T20:41:21.558Z,10.91
2022-10-19T20:43:48.335Z,10.87
2022-10-19T20:46:15.950Z,10.86
2022-10-19T20:48:42.464Z,10.86
2022-10-19T20:51:19.366Z,10.91
2022-10-19T20:53:48.648Z,10.84
2022-10-19T20:56:17.611Z,10.80
2022-10-19T20:58:45.054Z,10.80
2022-10-19T21:01:17.186Z,10.84
2022-10-19T21:03:52.684Z,10.87
2022-10-19T21:06:20.665Z,10.93
2022-10-19T21:08:47.261Z,11.00
2022-10-19T21:11:16.265Z,11.05
2022-10-19T21:13:43.105Z,11.02
2022-10-19T21:16:11.836Z,11.02
2022-10-19T21:18:38.294Z,10.96
2022-10-19T21:21:25.485Z,10.93
2022-10-19T21:23:57.232Z,10.93
2022-10-19T21:26:30.074Z,10.94
2022-10-19T21:28:56.919Z,10.97
2022-10-19T21:31:25.057Z,10.91
2022-10-19T21:33:51.957Z,10.91
2022-10-19T21:36:19.459Z,10.94
2022-10-19T21:38:45.834Z,10.95
2022-10-19T21:41:15.926Z,10.93
2022-10-19T21:43:42.784Z,10.93
2022-10-19T21:46:13.084Z,10.97
2022-10-19T21:48:39.683Z,10.99
2022-10-19T21:51:18.190Z,10.99
2022-10-19T21:53:45.155Z,11.05
2022-10-19T21:56:11.533Z,10.98
2022-10-19T21:58:38.022Z,10.93
2022-10-19T22:01:08.317Z,10.85
2022-10-19T22:03:34.707Z,10.85
2022-10-19T22:06:01.106Z,10.84
2022-10-19T22:08:27.586Z,10.83
2022-10-19T22:10:53.998Z,10.80
2022-10-19T22:13:20.337Z,10.73
2022-10-19T22:15:46.717Z,10.73
2022-10-19T22:18:13.112Z,10.74
2022-10-19T22:20:40.209Z,10.74
2022-10-19T22:23:07.965Z,10.74
2022-10-19T22:25:35.589Z,10.76
2022-10-19T22:28:02.429Z,10.72
2022-10-19T22:30:28.890Z,10.70
2022-10-19T22:32:55.841Z,10.71
2022-10-19T22:35:22.350Z,10.70
2022-10-19T22:37:48.693Z,10.72
2022-10-19T22:40:15.158Z,10.70
2022-10-19T22:42:41.538Z,10.73
2022-10-19T22:45:08.308Z,10.75
2022-10-19T22:47:34.708Z,10.71
2022-10-19T22:50:01.116Z,10.72
2022-10-19T22:52:27.478Z,10.72
2022-10-19T22:54:54.221Z,10.64
2022-10-19T22:57:20.553Z,10.63
2022-10-19T22:59:46.895Z,10.59
2022-10-19T23:02:13.255Z,10.57
2022-10-19T23:04:39.626Z,10.54
2022-10-19T23:07:06.023Z,10.58
2022-10-19T23:09:32.452Z,10.53
2022-10-19T23:11:58.829Z,10.51
2022-10-19T23:14:25.293Z,10.51
2022-10-19T23:16:51.649Z,10.44
2022-10-19T23:19:18.061Z,10.38
2022-10-19T23:21:44.433Z,10.39
2022-10-19T23:24:10.791Z,10.40
2022-10-19T23:26:37.333Z,10.43
2022-10-19T23:29:03.754Z,10.40
2022-10-19T23:31:30.502Z,10.38
2022-10-19T23:33:56.913Z,10.38
2022-10-19T23:36:26.771Z,10.43
2022-10-19T23:38:54.706Z,10.48
2022-10-19T23:41:21.358Z,10.47
2022-10-19T23:43:48.193Z,10.46
2022-10-19T23:46:14.612Z,10.48
2022-10-19T23:48:41.838Z,10.46
2022-10-19T23:51:11.154Z,10.48
2022-10-19T23:53:41.055Z,10.46
2022-10-19T23:56:13.586Z,10.42
2022-10-19T23:58:40.160Z,10.40
